Time;durP1;ratioP1;P1;durP2;ratioP2;P2;SDS_P1;SDS_P2;PMS_P1;PMS_P2;Temp;Humidity;BMP_temperature;BMP_pressure;BME280_temperature;BME280_humidity;BME280_pressure;Samples;Min_cycle;Max_cycle;Signal;HPM_P1;HPM_P2
2023/06/09 00:00:59;;;;;;;;;;;;;;;29.50;87.46;98781.13;4982780;28;19922;-52
2023/06/09 00:03:25;;;;;;;;;;;;;;;29.94;84.46;98761.88;4982646;28;20521;-49
2023/06/09 00:05:50;;;;;;;;;;;;;;;29.57;86.36;98777.56;4983274;28;20545;-52
2023/06/09 00:08:16;;;;;;;;;;;;;;;29.38;86.52;98778.03;4982670;28;19929;-51
2023/06/09 00:10:41;;;;;;;;;;;;;;;29.38;87.01;98775.41;4983426;28;19920;-49
2023/06/09 00:13:07;;;;;;;;;;;;;;;29.69;85.22;98759.44;4982653;28;19925;-50
2023/06/09 00:15:32;;;;;;;;;;;;;;;29.63;84.54;98764.59;4982389;28;20008;-48
2023/06/09 00:17:58;;;;;;;;;;;;;;;29.66;85.19;98769.56;4980892;28;20028;-51
2023/06/09 00:20:24;;;;;;;;;;;;;;;29.72;84.28;98758.25;4984011;28;20000;-49
2023/06/09 00:22:49;;;;;;;;;;;;;;;29.64;85.17;98766.25;4982477;28;20425;-50
2023/06/09 00:25:15;;;;;;;;;;;;;;;29.48;84.68;98762.72;4982944;28;19922;-51
2023/06/09 00:27:40;;;;;;;;;;;;;;;28.49;88.90;98788.81;4980842;28;20023;-48
2023/06/09 00:30:07;;;;;;;;;;;;;;;28.93;88.35;98772.44;4979939;28;20016;-50
2023/06/09 00:32:32;;;;;;;;;;;;;;;29.38;85.66;98751.50;4983642;28;19925;-49
2023/06/09 00:34:58;;;;;;;;;;;;;;;28.88;86.75;98768.66;4982995;28;19922;-51
2023/06/09 00:37:23;;;;;;;;;;;;;;;28.11;91.67;98785.03;4982393;28;20014;-49
2023/06/09 00:39:48;;;;;;;;;;;;;;;29.04;87.81;98755.31;4982979;28;19949;-51
2023/06/09 00:42:13;;;;;;;;;;;;;;;29.18;86.09;98746.66;4983376;28;19960;-49
2023/06/09 00:44:38;;;;;;;;;;;;;;;29.05;86.12;98756.97;4982414;28;19956;-51
2023/06/09 00:47:06;;;;;;;;;;;;;;;29.18;85.45;98748.47;4982967;28;20002;-51
2023/06/09 00:49:31;;;;;;;;;;;;;;;27.88;90.16;98769.81;4982800;28;19918;-52
2023/06/09 00:51:57;;;;;;;;;;;;;;;27.53;94.52;98787.63;4982482;28;19917;-50
2023/06/09 00:54:22;;;;;;;;;;;;;;;28.19;92.07;98771.81;4981493;28;19918;-49
2023/06/09 00:56:47;;;;;;;;;;;;;;;28.42;88.18;98756.03;4982315;28;19921;-48
2023/06/09 00:59:13;;;;;;;;;;;;;;;26.74;97.10;98822.34;4981072;28;19925;-49
2023/06/09 01:01:40;;;;;;;;;;;;;;;28.48;90.04;98754.53;4982020;28;19925;-50
2023/06/09 01:04:05;;;;;;;;;;;;;;;27.71;92.43;98779.56;4982447;28;20302;-49
2023/06/09 01:06:31;;;;;;;;;;;;;;;25.91;100.00;98836.72;4982982;28;19925;-51
2023/06/09 01:09:03;;;;;;;;;;;;;;;27.64;96.23;98775.06;4982044;28;19925;-50
2023/06/09 01:11:46;;;;;;;;;;;;;;;28.22;90.51;98755.56;4982512;28;19933;-50
2023/06/09 01:14:13;;;;;;;;;;;;;;;28.46;89.20;98756.50;4981340;28;19953;-49
2023/06/09 01:16:42;;;;;;;;;;;;;;;27.30;93.46;98790.06;4981407;28;19967;-48
2023/06/09 01:19:08;;;;;;;;;;;;;;;26.16;100.00;98821.94;4978586;28;20023;-51
2023/06/09 01:21:40;;;;;;;;;;;;;;;27.41;96.41;98773.03;4981564;28;20370;-47
2023/06/09 01:24:09;;;;;;;;;;;;;;;26.57;96.86;98806.41;4980327;28;19917;-50
2023/06/09 01:26:38;;;;;;;;;;;;;;;26.02;100.00;98811.91;4982187;28;20469;-51
2023/06/09 01:29:04;;;;;;;;;;;;;;;25.91;100.00;98807.72;4977262;28;19972;-49
2023/06/09 01:31:29;;;;;;;;;;;;;;;25.35;100.00;98820.13;4996411;28;19914;-50
2023/06/09 01:33:54;;;;;;;;;;;;;;;25.97;100.00;98806.25;4980059;28;20960;-49
2023/06/09 01:36:20;;;;;;;;;;;;;;;25.49;100.00;98807.44;4980339;28;19972;-49
2023/06/09 01:38:45;;;;;;;;;;;;;;;25.33;100.00;98810.72;4978970;28;20009;-48
2023/06/09 01:41:10;;;;;;;;;;;;;;;25.66;100.00;98804.00;4980198;28;19924;-48
2023/06/09 01:43:35;;;;;;;;;;;;;;;25.62;100.00;98805.25;4979659;28;19917;-50
2023/06/09 01:46:01;;;;;;;;;;;;;;;24.98;100.00;98797.28;4981280;28;19917;-48
2023/06/09 01:48:44;;;;;;;;;;;;;;;25.71;100.00;98793.81;4979864;28;19972;-51
2023/06/09 01:51:15;;;;;;;;;;;;;;;25.05;100.00;98803.63;4981105;28;19953;-48
2023/06/09 01:53:41;;;;;;;;;;;;;;;24.75;100.00;98819.69;4979923;28;19917;-48
2023/06/09 01:56:09;;;;;;;;;;;;;;;24.27;100.00;98818.81;4978774;28;19918;-49
2023/06/09 01:58:54;;;;;;;;;;;;;;;25.38;100.00;98792.63;4981493;28;19918;-51
2023/06/09 02:01:19;;;;;;;;;;;;;;;24.52;100.00;98812.16;4976602;28;19922;-49
2023/06/09 02:03:46;;;;;;;;;;;;;;;24.07;100.00;98825.88;4980038;28;19929;-48
2023/06/09 02:06:11;;;;;;;;;;;;;;;23.61;100.00;98827.38;4979593;28;19929;-48
2023/06/09 02:08:37;;;;;;;;;;;;;;;24.25;100.00;98806.78;4979329;28;19922;-47
2023/06/09 02:11:02;;;;;;;;;;;;;;;23.84;100.00;98808.72;4981171;28;19925;-48
2023/06/09 02:13:27;;;;;;;;;;;;;;;22.78;100.00;98829.25;4979076;28;19922;-48
2023/06/09 02:15:53;;;;;;;;;;;;;;;24.26;100.00;98790.81;4979686;28;20576;-51
2023/06/09 02:18:21;;;;;;;;;;;;;;;23.63;100.00;98783.38;4978370;28;19917;-47
2023/06/09 02:20:46;;;;;;;;;;;;;;;23.26;100.00;98805.00;4980474;28;20024;-47
2023/06/09 02:23:12;;;;;;;;;;;;;;;23.64;100.00;98798.16;4979964;28;20008;-46
2023/06/09 02:25:37;;;;;;;;;;;;;;;23.53;100.00;98808.81;4980840;28;20579;-46
2023/06/09 02:28:05;;;;;;;;;;;;;;;22.97;100.00;98818.88;4978219;28;19965;-46
2023/06/09 02:30:31;;;;;;;;;;;;;;;23.21;100.00;98809.00;4979977;28;20413;-48
2023/06/09 02:32:58;;;;;;;;;;;;;;;22.90;100.00;98822.16;4980506;28;19969;-48
2023/06/09 02:35:23;;;;;;;;;;;;;;;23.64;100.00;98794.72;4979700;28;19925;-46
2023/06/09 02:37:49;;;;;;;;;;;;;;;23.89;100.00;98780.22;4980073;28;19921;-47
2023/06/09 02:40:14;;;;;;;;;;;;;;;24.77;100.00;98770.31;4980279;28;19924;-48
2023/06/09 02:42:39;;;;;;;;;;;;;;;26.11;100.00;98742.38;4979795;28;19930;-49
2023/06/09 02:45:05;;;;;;;;;;;;;;;27.22;100.00;98721.28;4978896;28;19922;-48
2023/06/09 02:47:30;;;;;;;;;;;;;;;24.65;100.00;98801.28;4978725;28;19922;-50
2023/06/09 02:49:55;;;;;;;;;;;;;;;23.63;100.00;98827.22;4979676;28;20308;-48
2023/06/09 02:52:21;;;;;;;;;;;;;;;22.76;100.00;98839.06;4977642;28;20665;-48
2023/06/09 02:54:46;;;;;;;;;;;;;;;24.93;100.00;98785.50;4979432;28;19917;-48
2023/06/09 02:57:12;;;;;;;;;;;;;;;24.42;100.00;98806.03;4979045;28;19940;-50
2023/06/09 02:59:39;;;;;;;;;;;;;;;23.03;100.00;98832.44;4977992;28;20435;-49
2023/06/09 03:02:04;;;;;;;;;;;;;;;24.99;100.00;98777.03;4979685;28;19917;-48
2023/06/09 03:04:30;;;;;;;;;;;;;;;24.26;100.00;98790.81;4980482;28;20284;-48
2023/06/09 03:06:55;;;;;;;;;;;;;;;24.05;100.00;98791.00;4978443;28;19932;-48
2023/06/09 03:09:20;;;;;;;;;;;;;;;24.85;100.00;98778.34;4979524;28;19917;-47
2023/06/09 03:11:46;;;;;;;;;;;;;;;25.32;100.00;98765.09;4980427;28;20013;-50
2023/06/09 03:14:11;;;;;;;;;;;;;;;23.36;100.00;98819.00;4979933;28;20282;-49
2023/06/09 03:16:37;;;;;;;;;;;;;;;23.26;100.00;98833.09;4977987;28;19933;-47
2023/06/09 03:19:02;;;;;;;;;;;;;;;24.10;100.00;98806.34;4977432;28;19956;-48
2023/06/09 03:21:27;;;;;;;;;;;;;;;25.45;100.00;98764.69;4979667;28;19953;-50
2023/06/09 03:23:52;;;;;;;;;;;;;;;25.52;100.00;98772.84;4979977;28;19963;-49
2023/06/09 03:26:18;;;;;;;;;;;;;;;25.96;100.00;98770.31;4979609;28;19976;-48
2023/06/09 03:28:43;;;;;;;;;;;;;;;26.88;100.00;98745.13;4977144;28;19917;-48
2023/06/09 03:31:08;;;;;;;;;;;;;;;26.78;100.00;98753.19;4978827;28;19922;-50
2023/06/09 03:33:33;;;;;;;;;;;;;;;25.60;100.00;98775.56;4979287;28;20390;-48
2023/06/09 03:35:59;;;;;;;;;;;;;;;25.58;100.00;98788.91;4979335;28;19945;-48
2023/06/09 03:38:24;;;;;;;;;;;;;;;25.97;100.00;98779.88;4979144;28;19914;-47
2023/06/09 03:40:49;;;;;;;;;;;;;;;26.64;100.00;98764.31;4979067;28;19921;-49
2023/06/09 03:43:14;;;;;;;;;;;;;;;26.99;99.85;98752.75;4979760;28;19925;-48
2023/06/09 03:45:40;;;;;;;;;;;;;;;27.07;98.86;98755.44;4979130;28;20282;-48
2023/06/09 03:48:06;;;;;;;;;;;;;;;26.79;98.77;98756.63;4979546;28;20345;-49
2023/06/09 03:50:31;;;;;;;;;;;;;;;26.77;98.84;98764.72;4976977;28;19921;-49
2023/06/09 03:52:56;;;;;;;;;;;;;;;26.37;100.00;98778.53;4979689;28;19933;-50
2023/06/09 03:55:24;;;;;;;;;;;;;;;26.04;100.00;98779.09;4978991;28;19922;-47
2023/06/09 03:57:49;;;;;;;;;;;;;;;26.17;100.00;98789.25;4980185;28;20124;-47
2023/06/09 04:00:15;;;;;;;;;;;;;;;26.16;100.00;98771.78;4976384;28;20034;-49
2023/06/09 04:02:40;;;;;;;;;;;;;;;25.87;100.00;98783.44;4979789;28;19917;-47
2023/06/09 04:05:06;;;;;;;;;;;;;;;26.08;100.00;98790.19;4979599;28;19921;-49
2023/06/09 04:07:32;;;;;;;;;;;;;;;26.46;100.00;98772.31;4978508;28;19932;-48
2023/06/09 04:09:57;;;;;;;;;;;;;;;26.96;100.00;98758.38;4979282;28;20032;-47
2023/06/09 04:12:22;;;;;;;;;;;;;;;27.15;97.60;98745.88;4979489;28;19971;-47
2023/06/09 04:14:47;;;;;;;;;;;;;;;27.19;96.79;98747.22;4978611;28;20504;-50
2023/06/09 04:17:13;;;;;;;;;;;;;;;27.03;98.40;98769.94;4979346;28;20528;-47
2023/06/09 04:19:38;;;;;;;;;;;;;;;26.31;100.00;98779.13;4979973;28;19950;-48
2023/06/09 04:22:05;;;;;;;;;;;;;;;26.27;100.00;98779.44;4981023;28;19933;-49
2023/06/09 04:24:30;;;;;;;;;;;;;;;26.87;100.00;98769.91;4980902;28;19918;-47
2023/06/09 04:26:55;;;;;;;;;;;;;;;25.76;100.00;98791.53;4982224;28;19972;-49
2023/06/09 04:29:22;;;;;;;;;;;;;;;24.79;100.00;98818.41;4982420;28;20481;-48
2023/06/09 04:31:48;;;;;;;;;;;;;;;26.63;100.00;98781.16;4982277;28;19933;-47
2023/06/09 04:34:15;;;;;;;;;;;;;;;27.35;96.84;98736.69;4982135;28;19921;-47
2023/06/09 04:36:41;;;;;;;;;;;;;;;27.44;95.93;98745.47;4982297;28;20070;-48
2023/06/09 04:39:07;;;;;;;;;;;;;;;27.61;94.43;98735.72;4980278;28;19975;-50
2023/06/09 04:41:32;;;;;;;;;;;;;;;25.93;100.00;98789.06;4981664;28;19914;-47
2023/06/09 04:44:03;;;;;;;;;;;;;;;25.37;100.00;98806.81;4982185;28;20528;-47
2023/06/09 04:46:29;;;;;;;;;;;;;;;26.26;100.00;98775.13;4980737;28;20708;-47
2023/06/09 04:48:54;;;;;;;;;;;;;;;26.79;98.33;98746.06;4981915;28;19924;-47
2023/06/09 04:51:23;;;;;;;;;;;;;;;26.69;100.00;98768.16;4982671;28;20259;-47
2023/06/09 04:53:49;;;;;;;;;;;;;;;26.12;99.97;98775.72;4981911;28;19949;-47
2023/06/09 04:56:16;;;;;;;;;;;;;;;27.12;98.55;98747.03;4979834;28;19918;-48
2023/06/09 04:58:41;;;;;;;;;;;;;;;26.39;98.06;98764.19;4981531;28;19917;-48
2023/06/09 05:01:06;;;;;;;;;;;;;;;27.57;94.84;98729.09;4981358;28;20375;-49
2023/06/09 05:03:31;;;;;;;;;;;;;;;28.20;91.26;98719.66;4980928;28;20248;-50
2023/06/09 05:05:57;;;;;;;;;;;;;;;26.27;97.74;98779.44;4980557;28;20012;-50
2023/06/09 05:08:22;;;;;;;;;;;;;;;27.19;98.51;98763.06;4981277;28;20021;-50
2023/06/09 05:10:47;;;;;;;;;;;;;;;26.45;99.88;98773.28;4982415;28;20364;-47
2023/06/09 05:13:12;;;;;;;;;;;;;;;26.21;100.00;98780.06;4982152;28;20363;-51
2023/06/09 05:15:37;;;;;;;;;;;;;;;26.53;99.55;98752.19;4980899;28;20860;-51
2023/06/09 05:18:03;;;;;;;;;;;;;;;28.29;94.76;98727.41;4979386;28;20702;-48
2023/06/09 05:20:28;;;;;;;;;;;;;;;29.06;91.80;98720.66;4982204;28;20446;-48
2023/06/09 05:22:53;;;;;;;;;;;;;;;27.84;93.02;98757.91;4982626;28;19920;-48
2023/06/09 05:25:19;;;;;;;;;;;;;;;27.51;97.35;98776.38;4980206;28;20032;-48
2023/06/09 05:27:44;;;;;;;;;;;;;;;27.75;94.34;98758.88;4981586;28;19929;-47
2023/06/09 05:30:09;;;;;;;;;;;;;;;28.87;91.00;98743.94;4980896;28;19928;-51
2023/06/09 05:32:35;;;;;;;;;;;;;;;27.62;97.63;98779.69;4981673;28;19976;-51
2023/06/09 05:35:00;;;;;;;;;;;;;;;29.23;93.73;98748.78;4981751;28;20024;-49
2023/06/09 05:37:25;;;;;;;;;;;;;;;28.41;94.02;98764.94;4981497;28;19929;-48
2023/06/09 05:39:51;;;;;;;;;;;;;;;29.14;91.85;98745.34;4980629;28;19928;-50
2023/06/09 05:42:16;;;;;;;;;;;;;;;27.85;95.34;98783.38;4981534;28;19921;-48
2023/06/09 05:44:41;;;;;;;;;;;;;;;28.06;94.76;98782.06;4980650;28;19917;-51
2023/06/09 05:47:06;;;;;;;;;;;;;;;29.49;91.00;98742.31;4980265;28;19922;-51
2023/06/09 05:49:33;;;;;;;;;;;;;;;29.04;93.67;98776.53;4980622;28;20029;-49
2023/06/09 05:51:58;;;;;;;;;;;;;;;29.75;93.05;98763.22;4979915;28;19918;-47
2023/06/09 05:54:24;;;;;;;;;;;;;;;29.97;92.59;98753.56;4978822;28;19921;-50
2023/06/09 05:56:49;;;;;;;;;;;;;;;29.59;92.64;98770.25;4980912;28;20870;-47
2023/06/09 05:59:14;;;;;;;;;;;;;;;30.99;88.88;98745.03;4979511;28;19921;-48
2023/06/09 06:01:40;;;;;;;;;;;;;;;30.43;89.30;98756.16;4979440;28;19918;-49
2023/06/09 06:04:05;;;;;;;;;;;;;;;30.29;89.99;98771.06;4980406;28;19918;-50
2023/06/09 06:06:31;;;;;;;;;;;;;;;30.82;90.42;98755.03;4977907;28;19918;-48
2023/06/09 06:08:56;;;;;;;;;;;;;;;28.86;94.05;98799.81;4980179;28;19921;-50
2023/06/09 06:11:21;;;;;;;;;;;;;;;30.46;90.85;98760.25;4980817;28;19929;-50
2023/06/09 06:13:47;;;;;;;;;;;;;;;30.25;91.75;98764.44;4980074;28;19926;-48
2023/06/09 06:16:12;;;;;;;;;;;;;;;29.51;95.53;98799.50;4979579;28;20216;-52
2023/06/09 06:18:37;;;;;;;;;;;;;;;29.33;94.41;98785.69;4978274;28;19944;-50
2023/06/09 06:21:02;;;;;;;;;;;;;;;28.61;98.69;98805.19;4980610;28;19917;-48
2023/06/09 06:23:28;;;;;;;;;;;;;;;29.10;98.20;98805.06;4980605;28;20826;-47
2023/06/09 06:25:53;;;;;;;;;;;;;;;30.48;95.08;98780.34;4979356;28;19924;-48
2023/06/09 06:28:18;;;;;;;;;;;;;;;28.91;96.77;98808.88;4980565;28;19921;-50
2023/06/09 06:30:44;;;;;;;;;;;;;;;28.82;96.02;98793.19;4979830;28;19922;-47
2023/06/09 06:33:09;;;;;;;;;;;;;;;29.08;97.90;98817.66;4981058;28;19917;-48
2023/06/09 06:35:34;;;;;;;;;;;;;;;29.01;98.72;98806.03;4979850;28;19929;-49
2023/06/09 06:38:00;;;;;;;;;;;;;;;30.25;97.07;98785.69;4978421;28;19914;-50
2023/06/09 06:40:25;;;;;;;;;;;;;;;28.94;97.60;98818.31;4980271;28;19917;-48
2023/06/09 06:42:51;;;;;;;;;;;;;;;30.29;96.67;98794.97;4980131;28;20021;-48
2023/06/09 06:45:17;;;;;;;;;;;;;;;28.78;100.00;98829.81;4978810;28;19921;-48
2023/06/09 06:47:43;;;;;;;;;;;;;;;29.09;100.00;98827.25;4980198;28;19926;-48
2023/06/09 06:50:09;;;;;;;;;;;;;;;28.73;100.00;98830.31;4979596;28;20374;-47
2023/06/09 06:52:34;;;;;;;;;;;;;;;30.49;98.22;98792.59;4979774;28;19926;-48
2023/06/09 06:55:00;;;;;;;;;;;;;;;29.15;100.00;98831.88;4979507;28;19949;-50
2023/06/09 06:57:25;;;;;;;;;;;;;;;30.83;98.15;98804.53;4979352;28;19975;-49
2023/06/09 06:59:51;;;;;;;;;;;;;;;32.22;90.31;98757.28;4979955;28;19921;-48
2023/06/09 07:02:16;;;;;;;;;;;;;;;30.31;93.22;98800.94;4980214;28;19922;-49
2023/06/09 07:04:41;;;;;;;;;;;;;;;30.05;97.15;98833.16;4980372;28;19921;-48
2023/06/09 07:07:07;;;;;;;;;;;;;;;30.46;98.24;98818.72;4980685;28;19926;-48
2023/06/09 07:09:32;;;;;;;;;;;;;;;30.64;92.92;98795.28;4978643;28;19984;-51
2023/06/09 07:11:57;;;;;;;;;;;;;;;30.88;94.22;98790.69;4978385;28;19918;-48
2023/06/09 07:14:22;;;;;;;;;;;;;;;31.71;91.65;98778.78;4980312;28;19932;-48
2023/06/09 07:16:47;;;;;;;;;;;;;;;31.48;88.70;98770.16;4979625;28;19937;-49
2023/06/09 07:19:13;;;;;;;;;;;;;;;31.61;90.95;98787.09;4978337;28;19928;-49
2023/06/09 07:21:38;;;;;;;;;;;;;;;30.72;95.02;98813.78;4979387;28;19926;-50
2023/06/09 07:24:03;;;;;;;;;;;;;;;29.63;98.32;98828.28;4979798;28;19925;-49
2023/06/09 07:26:29;;;;;;;;;;;;;;;28.15;100.00;98865.78;4980211;28;19921;-50
2023/06/09 07:28:54;;;;;;;;;;;;;;;30.31;100.00;98830.16;4979813;28;19918;-50
2023/06/09 07:31:19;;;;;;;;;;;;;;;31.96;94.02;98787.22;4980092;28;19922;-48
2023/06/09 07:33:45;;;;;;;;;;;;;;;32.18;91.47;98787.16;4979407;28;19918;-49
2023/06/09 07:36:11;;;;;;;;;;;;;;;30.38;93.81;98823.13;4979893;28;19921;-48
2023/06/09 07:38:42;;;;;;;;;;;;;;;31.02;94.22;98825.28;4979345;28;19964;-51
2023/06/09 07:41:07;;;;;;;;;;;;;;;33.48;86.98;98759.75;4979314;28;20070;-47
2023/06/09 07:43:32;;;;;;;;;;;;;;;32.73;88.84;98782.84;4979956;28;19914;-48
2023/06/09 07:45:58;;;;;;;;;;;;;;;32.81;86.92;98773.84;4979880;28;19918;-49
2023/06/09 07:48:23;;;;;;;;;;;;;;;32.25;90.69;98798.69;4980243;28;19921;-51
2023/06/09 07:50:48;;;;;;;;;;;;;;;31.96;89.72;98805.88;4977315;28;20005;-50
2023/06/09 07:53:13;;;;;;;;;;;;;;;31.39;93.84;98823.47;4980903;28;19921;-49
2023/06/09 07:55:38;;;;;;;;;;;;;;;31.22;99.17;98845.97;4982615;28;19921;-49
2023/06/09 07:58:04;;;;;;;;;;;;;;;32.96;93.38;98784.38;4982876;28;19933;-49
2023/06/09 08:00:29;;;;;;;;;;;;;;;31.54;90.73;98796.00;4982412;28;20299;-48
2023/06/09 08:03:02;;;;;;;;;;;;;;;32.31;93.10;98792.59;4984477;28;19944;-48
2023/06/09 08:05:27;;;;;;;;;;;;;;;33.69;83.95;98764.09;4982477;28;20504;-51
2023/06/09 08:07:52;;;;;;;;;;;;;;;29.36;98.13;98860.44;4980711;28;20038;-51
2023/06/09 08:10:18;;;;;;;;;;;;;;;31.34;96.99;98822.34;4983713;28;20008;-50
2023/06/09 08:12:43;;;;;;;;;;;;;;;30.60;94.97;98818.72;4983791;28;19921;-49
2023/06/09 08:15:08;;;;;;;;;;;;;;;31.72;97.63;98814.22;4982980;28;20020;-49
2023/06/09 08:17:33;;;;;;;;;;;;;;;32.46;90.89;98782.66;4981042;28;19928;-51
2023/06/09 08:19:59;;;;;;;;;;;;;;;31.99;92.40;98799.31;4982231;28;19921;-49
2023/06/09 08:22:25;;;;;;;;;;;;;;;32.58;90.25;98774.16;4982112;28;19984;-51
2023/06/09 08:24:50;;;;;;;;;;;;;;;33.43;90.63;98764.03;4980936;28;20286;-48
2023/06/09 08:27:15;;;;;;;;;;;;;;;32.90;87.83;98767.31;4983461;28;19918;-49
2023/06/09 08:29:41;;;;;;;;;;;;;;;33.33;87.50;98767.91;4982569;28;19918;-48
2023/06/09 08:32:06;;;;;;;;;;;;;;;32.39;89.25;98773.81;4983260;28;19922;-50
2023/06/09 08:34:32;;;;;;;;;;;;;;;31.84;85.73;98752.28;4982383;28;19957;-49
2023/06/09 08:36:57;;;;;;;;;;;;;;;33.58;87.98;98756.69;4982640;28;19928;-51
2023/06/09 08:39:23;;;;;;;;;;;;;;;33.73;86.11;98760.00;4981960;28;19918;-50
2023/06/09 08:41:50;;;;;;;;;;;;;;;33.57;84.22;98744.31;4979381;28;19921;-51
2023/06/09 08:44:15;;;;;;;;;;;;;;;33.14;81.28;98739.31;4979201;28;19925;-49
2023/06/09 08:46:42;;;;;;;;;;;;;;;32.84;83.47;98755.59;4976330;28;19922;-49
2023/06/09 08:49:07;;;;;;;;;;;;;;;32.54;80.11;98738.22;4976065;28;19976;-52
2023/06/09 08:51:33;;;;;;;;;;;;;;;32.81;80.33;98734.66;4978176;28;19926;-49
2023/06/09 08:53:58;;;;;;;;;;;;;;;32.70;78.86;98728.03;4981970;28;19933;-49
2023/06/09 08:56:24;;;;;;;;;;;;;;;33.73;76.96;98719.94;4981727;28;19914;-49
2023/06/09 08:58:50;;;;;;;;;;;;;;;36.78;70.22;98680.78;4982338;28;19914;-51
2023/06/09 09:01:17;;;;;;;;;;;;;;;34.71;75.07;98734.38;4981648;28;19980;-48
2023/06/09 09:03:42;;;;;;;;;;;;;;;34.95;75.14;98714.94;4981778;28;20566;-49
2023/06/09 09:06:08;;;;;;;;;;;;;;;36.51;72.03;98700.94;4979968;28;19917;-49
2023/06/09 09:08:33;;;;;;;;;;;;;;;35.01;69.57;98709.75;4981473;28;20613;-49
2023/06/09 09:10:58;;;;;;;;;;;;;;;33.82;73.47;98725.06;4980284;28;19925;-49
2023/06/09 09:13:27;;;;;;;;;;;;;;;35.42;73.12;98722.69;4981690;28;19944;-53
2023/06/09 09:15:52;;;;;;;;;;;;;;;33.51;72.32;98729.13;4981541;28;19968;-47
2023/06/09 09:18:19;;;;;;;;;;;;;;;33.87;64.24;98706.56;4978468;28;19917;-48
2023/06/09 09:20:44;;;;;;;;;;;;;;;33.31;66.03;98719.25;4981992;28;19929;-51
2023/06/09 09:23:10;;;;;;;;;;;;;;;34.70;59.40;98679.25;4982172;28;20506;-49
2023/06/09 09:25:35;;;;;;;;;;;;;;;36.13;57.48;98672.47;4981253;28;19922;-48
2023/06/09 09:28:06;;;;;;;;;;;;;;;34.66;60.32;98694.91;4978767;28;19930;-50
2023/06/09 09:30:48;;;;;;;;;;;;;;;33.86;58.45;98697.72;4981532;28;20334;-49
2023/06/09 09:33:20;;;;;;;;;;;;;;;33.33;62.98;98711.84;4981474;28;19976;-50
2023/06/09 09:35:50;;;;;;;;;;;;;;;33.95;58.90;98699.16;4980502;28;20025;-51
2023/06/09 09:38:16;;;;;;;;;;;;;;;32.91;60.58;98700.44;4980450;28;19917;-49
2023/06/09 09:40:50;;;;;;;;;;;;;;;36.66;55.54;98660.34;4979648;28;19918;-50
2023/06/09 09:43:15;;;;;;;;;;;;;;;34.87;62.47;98715.16;4981993;28;20016;-48
2023/06/09 09:45:47;;;;;;;;;;;;;;;31.78;60.56;98713.09;4979992;28;21038;-48
2023/06/09 09:48:13;;;;;;;;;;;;;;;33.92;53.68;98666.69;4981467;28;19926;-49
2023/06/09 09:50:38;;;;;;;;;;;;;;;33.46;57.49;98692.38;4979899;28;20812;-50
2023/06/09 09:53:04;;;;;;;;;;;;;;;34.04;52.41;98669.56;4982089;28;19949;-49
2023/06/09 09:55:30;;;;;;;;;;;;;;;33.32;51.94;98691.53;4980626;28;19917;-50
2023/06/09 09:57:56;;;;;;;;;;;;;;;33.59;55.82;98694.25;4979745;28;20383;-49
2023/06/09 10:00:21;;;;;;;;;;;;;;;31.98;53.85;98694.63;4979034;28;19960;-51
2023/06/09 10:02:46;;;;;;;;;;;;;;;34.63;53.30;98673.13;4981018;28;19957;-49
2023/06/09 10:05:14;;;;;;;;;;;;;;;33.58;50.78;98665.91;4978939;28;19928;-49
2023/06/09 10:07:40;;;;;;;;;;;;;;;33.63;53.07;98684.78;4979837;28;20305;-51
2023/06/09 10:10:08;;;;;;;;;;;;;;;33.88;52.54;98679.63;4979641;28;19917;-50
2023/06/09 10:12:35;;;;;;;;;;;;;;;34.51;47.69;98662.22;4981286;28;19937;-50
2023/06/09 10:15:00;;;;;;;;;;;;;;;33.61;51.41;98680.69;4980093;28;20018;-49
2023/06/09 10:17:26;;;;;;;;;;;;;;;32.50;52.67;98690.63;4979103;28;19964;-50
2023/06/09 10:19:52;;;;;;;;;;;;;;;33.02;49.51;98663.53;4980484;28;19952;-50
2023/06/09 10:22:18;;;;;;;;;;;;;;;34.10;46.38;98658.88;4981644;28;19941;-51
2023/06/09 10:24:43;;;;;;;;;;;;;;;33.27;49.88;98675.28;4980796;28;19918;-51
2023/06/09 10:27:08;;;;;;;;;;;;;;;34.74;49.28;98653.72;4979407;28;19976;-51
2023/06/09 10:29:33;;;;;;;;;;;;;;;34.46;47.95;98662.84;4979370;28;19922;-51
2023/06/09 10:31:58;;;;;;;;;;;;;;;33.91;47.86;98659.69;4981051;28;20682;-49
2023/06/09 10:34:24;;;;;;;;;;;;;;;34.77;45.16;98642.59;4979117;28;20001;-50
2023/06/09 10:36:52;;;;;;;;;;;;;;;35.44;47.67;98647.50;4980589;28;19922;-52
2023/06/09 10:39:18;;;;;;;;;;;;;;;34.13;50.79;98668.31;4980010;28;19944;-48
2023/06/09 10:41:46;;;;;;;;;;;;;;;33.85;48.22;98657.84;4980305;28;19917;-51
2023/06/09 10:44:30;;;;;;;;;;;;;;;34.18;47.32;98659.69;4977045;28;19921;-48
2023/06/09 10:46:55;;;;;;;;;;;;;;;34.05;48.86;98669.31;4975452;28;20379;-49
2023/06/09 10:49:24;;;;;;;;;;;;;;;34.62;50.56;98664.25;4971975;28;19926;-50
2023/06/09 10:51:49;;;;;;;;;;;;;;;35.06;51.01;98673.31;4979041;28;19921;-50
2023/06/09 10:54:15;;;;;;;;;;;;;;;34.84;49.51;98662.09;4979694;28;20760;-50
2023/06/09 10:56:54;;;;;;;;;;;;;;;34.57;48.34;98659.50;4978061;28;19917;-49
2023/06/09 10:59:25;;;;;;;;;;;;;;;33.99;47.50;98664.84;4978918;28;20017;-49
2023/06/09 11:02:00;;;;;;;;;;;;;;;34.32;55.29;98682.66;4976640;28;19917;-49
2023/06/09 11:04:38;;;;;;;;;;;;;;;34.25;53.62;98684.53;4978523;28;19967;-48
2023/06/09 11:07:13;;;;;;;;;;;;;;;34.25;57.56;98688.03;4978449;28;19922;-48
2023/06/09 11:09:38;;;;;;;;;;;;;;;32.08;60.87;98721.72;4979082;28;19922;-48
2023/06/09 11:12:05;;;;;;;;;;;;;;;33.52;57.19;98690.72;4979584;28;19921;-50
2023/06/09 11:14:46;;;;;;;;;;;;;;;35.17;56.83;98664.63;4975725;28;19928;-49
2023/06/09 11:17:37;;;;;;;;;;;;;;;35.29;55.22;98667.41;4979637;28;19972;-51
2023/06/09 11:20:11;;;;;;;;;;;;;;;35.35;53.59;98658.50;4981035;28;20004;-48
2023/06/09 11:22:44;;;;;;;;;;;;;;;34.34;57.05;98685.94;4979581;28;19925;-48
2023/06/09 11:25:15;;;;;;;;;;;;;;;34.20;55.37;98681.69;4977881;28;20169;-50
2023/06/09 11:27:40;;;;;;;;;;;;;;;32.52;60.13;98702.94;4978800;28;20387;-51
2023/06/09 11:30:09;;;;;;;;;;;;;;;34.28;55.77;98670.75;4982684;28;19971;-49
2023/06/09 11:32:47;;;;;;;;;;;;;;;31.72;59.61;98700.53;4983890;28;19918;-48
2023/06/09 11:35:31;;;;;;;;;;;;;;;32.67;60.11;98685.78;4983566;28;20008;-49
2023/06/09 11:37:56;;;;;;;;;;;;;;;36.24;53.66;98639.53;4982413;28;19961;-49
2023/06/09 11:40:21;;;;;;;;;;;;;;;37.78;50.48;98625.56;4982110;28;19926;-50
2023/06/09 11:42:47;;;;;;;;;;;;;;;35.03;58.66;98678.25;4982872;28;19953;-48
2023/06/09 11:45:13;;;;;;;;;;;;;;;36.50;56.69;98657.19;4983023;28;19921;-49
2023/06/09 11:47:42;;;;;;;;;;;;;;;37.57;51.77;98629.66;4982609;28;19933;-48
2023/06/09 11:50:12;;;;;;;;;;;;;;;36.25;51.66;98659.16;4982394;28;20008;-48
2023/06/09 11:52:37;;;;;;;;;;;;;;;36.14;53.55;98661.53;4980738;28;20025;-50
2023/06/09 11:55:04;;;;;;;;;;;;;;;36.72;53.16;98648.69;4981998;28;20020;-48
2023/06/09 11:57:32;;;;;;;;;;;;;;;34.74;57.45;98685.84;4982797;28;19918;-48
2023/06/09 11:59:57;;;;;;;;;;;;;;;37.79;55.29;98648.69;4979615;28;20195;-49
2023/06/09 12:02:22;;;;;;;;;;;;;;;36.01;53.96;98661.63;4981795;28;20547;-52
2023/06/09 12:04:49;;;;;;;;;;;;;;;36.94;52.68;98647.13;4982542;28;20442;-50
2023/06/09 12:07:15;;;;;;;;;;;;;;;36.65;53.96;98654.13;4980349;28;19917;-52
2023/06/09 12:09:40;;;;;;;;;;;;;;;34.76;52.74;98678.38;4981935;28;20338;-49
2023/06/09 12:12:05;;;;;;;;;;;;;;;35.89;53.17;98658.06;4982824;28;20460;-50
2023/06/09 12:14:31;;;;;;;;;;;;;;;36.49;51.81;98644.81;4981948;28;19996;-48
2023/06/09 12:16:56;;;;;;;;;;;;;;;36.22;58.63;98671.13;4982364;28;19988;-49
2023/06/09 12:19:22;;;;;;;;;;;;;;;34.88;53.93;98670.53;4980422;28;19918;-49
2023/06/09 12:21:48;;;;;;;;;;;;;;;35.28;57.27;98676.47;4981059;28;19976;-48
2023/06/09 12:24:13;;;;;;;;;;;;;;;37.70;49.72;98639.34;4983137;28;19918;-50
2023/06/09 12:26:39;;;;;;;;;;;;;;;36.18;52.77;98657.38;4981660;28;19928;-50
2023/06/09 12:29:04;;;;;;;;;;;;;;;33.80;56.94;98695.06;4979779;28;19928;-50
2023/06/09 12:31:30;;;;;;;;;;;;;;;35.81;52.47;98651.16;4981911;28;20009;-49
2023/06/09 12:33:56;;;;;;;;;;;;;;;35.50;54.68;98655.50;4997424;28;20012;-49
2023/06/09 12:36:22;;;;;;;;;;;;;;;35.47;52.87;98644.38;4982933;28;19957;-53
2023/06/09 12:38:48;;;;;;;;;;;;;;;35.69;50.02;98640.31;4980701;28;20275;-51